createdAt,value
2019-04-26T00:02:32.599Z,9.80
2019-04-26T00:05:03.011Z,7.67
2019-04-26T00:07:32.779Z,8.03
2019-04-26T00:10:03.866Z,10.70
2019-04-26T00:12:37.975Z,8.35
2019-04-26T00:15:19.501Z,8.43
2019-04-26T00:17:52.220Z,8.10
2019-04-26T00:20:21.683Z,9.78
2019-04-26T00:22:51.046Z,7.90
2019-04-26T00:25:20.330Z,7.87
2019-04-26T00:27:49.619Z,7.60
2019-04-26T00:30:19.171Z,10.78
2019-04-26T00:32:48.611Z,11.08
2019-04-26T00:35:17.883Z,7.85
2019-04-26T00:37:47.157Z,8.18
2019-04-26T00:40:16.443Z,9.58
2019-04-26T00:42:46.275Z,11.10
2019-04-26T00:45:16.663Z,8.95
2019-04-26T00:47:46.326Z,10.13
2019-04-26T00:50:17.074Z,9.78
2019-04-26T00:52:46.740Z,12.95
2019-04-26T00:55:17.562Z,10.10
2019-04-26T00:57:47.205Z,10.20
2019-04-26T01:00:18.153Z,10.93
2019-04-26T01:02:49.111Z,10.53
2019-04-26T01:05:18.942Z,8.73
2019-04-26T01:07:50.013Z,11.33
2019-04-26T01:10:21.625Z,12.95
2019-04-26T01:12:50.971Z,10.75
2019-04-26T01:15:23.170Z,9.90
2019-04-26T01:17:52.838Z,9.25
2019-04-26T01:20:22.900Z,11.00
2019-04-26T01:22:54.105Z,10.82
2019-04-26T01:25:41.019Z,14.15
2019-04-26T01:28:13.524Z,12.45
2019-04-26T01:30:44.792Z,11.33
2019-04-26T01:33:14.274Z,12.35
2019-04-26T01:35:44.705Z,14.75
2019-04-26T01:38:15.604Z,14.20
2019-04-26T01:40:48.214Z,14.75
2019-04-26T01:43:20.223Z,11.80
2019-04-26T01:45:56.425Z,13.05
2019-04-26T01:48:56.433Z,10.40
2019-04-26T01:51:40.101Z,11.20
2019-04-26T01:54:11.510Z,11.65
2019-04-26T01:56:40.976Z,12.70
2019-04-26T01:59:11.875Z,12.95
2019-04-26T02:01:42.826Z,12.40
2019-04-26T02:04:12.195Z,10.98
2019-04-26T02:06:41.490Z,11.30
2019-04-26T02:09:12.040Z,12.68
2019-04-26T02:11:41.880Z,11.60
2019-04-26T02:14:11.235Z,12.65
2019-04-26T02:16:40.816Z,11.28
2019-04-26T02:19:11.601Z,14.00
2019-04-26T02:21:45.499Z,11.75
2019-04-26T02:24:26.393Z,12.82
2019-04-26T02:26:57.277Z,12.18
2019-04-26T02:29:28.484Z,12.93
2019-04-26T02:32:04.207Z,13.75
2019-04-26T02:34:36.003Z,12.35
2019-04-26T02:37:08.468Z,14.07
2019-04-26T02:39:39.889Z,13.05
2019-04-26T02:42:32.302Z,13.68
2019-04-26T02:45:18.300Z,13.67
2019-04-26T02:48:06.059Z,15.03
2019-04-26T02:50:49.299Z,15.48
2019-04-26T02:53:31.537Z,13.83
2019-04-26T02:56:30.336Z,15.53
2019-04-26T02:59:12.869Z,17.02
2019-04-26T03:01:42.510Z,16.05
2019-04-26T03:04:12.083Z,17.10
2019-04-26T03:06:43.279Z,16.10
2019-04-26T03:09:15.119Z,16.85
2019-04-26T03:11:50.679Z,15.53
2019-04-26T03:14:21.575Z,16.00
2019-04-26T03:17:05.319Z,18.90
2019-04-26T03:19:51.458Z,17.37
2019-04-26T03:22:40.411Z,23.92
2019-04-26T03:25:18.420Z,28.65
2019-04-26T03:28:05.848Z,30.68
2019-04-26T03:30:51.235Z,31.30
2019-04-26T03:33:43.069Z,29.42
2019-04-26T03:36:50.213Z,29.05
2019-04-26T03:39:37.257Z,29.67
2019-04-26T03:42:36.530Z,27.82
2019-04-26T03:45:11.846Z,27.85
2019-04-26T03:47:45.875Z,26.10
2019-04-26T03:50:18.484Z,24.77
2019-04-26T03:52:57.130Z,24.00
2019-04-26T03:55:31.249Z,24.00
2019-04-26T03:58:05.396Z,20.72
2019-04-26T04:00:39.499Z,20.60
2019-04-26T04:03:22.333Z,22.13
2019-04-26T04:05:55.380Z,19.05
2019-04-26T04:08:30.567Z,18.77
2019-04-26T04:11:05.752Z,20.82
2019-04-26T04:13:46.502Z,17.95
2019-04-26T04:16:39.324Z,17.92
2019-04-26T04:19:34.316Z,19.52
2019-04-26T04:22:14.495Z,20.43
2019-04-26T04:24:51.182Z,19.17
2019-04-26T04:27:26.777Z,19.90
2019-04-26T04:30:11.080Z,19.15
2019-04-26T04:33:16.827Z,20.92
2019-04-26T04:35:49.424Z,20.23
2019-04-26T04:38:34.762Z,18.25
2019-04-26T04:41:14.134Z,17.35
2019-04-26T04:43:49.262Z,20.32
2019-04-26T04:46:45.829Z,19.90
2019-04-26T04:49:32.866Z,22.10
2019-04-26T04:52:05.308Z,19.87
2019-04-26T04:54:44.712Z,21.42
2019-04-26T04:57:20.886Z,20.95
2019-04-26T04:59:59.101Z,20.82
2019-04-26T05:02:43.312Z,19.98
2019-04-26T05:05:26.098Z,19.92
2019-04-26T05:08:07.500Z,18.52
2019-04-26T05:10:39.982Z,18.92
2019-04-26T05:13:12.423Z,19.82
2019-04-26T05:16:12.242Z,19.98
2019-04-26T05:18:56.979Z,21.17
2019-04-26T05:21:48.775Z,17.62
2019-04-26T05:24:40.619Z,18.73
2019-04-26T05:27:20.524Z,20.02
2019-04-26T05:29:57.215Z,19.62
2019-04-26T05:32:41.664Z,17.50
2019-04-26T05:35:42.767Z,19.35
2019-04-26T05:38:39.178Z,19.87
2019-04-26T05:41:14.587Z,19.75
2019-04-26T05:44:00.317Z,20.68
2019-04-26T05:46:46.815Z,18.20
2019-04-26T05:49:53.761Z,21.15
2019-04-26T05:52:46.564Z,17.52
2019-04-26T05:55:28.825Z,19.25
2019-04-26T05:58:13.266Z,18.50
2019-04-26T06:01:14.646Z,19.12
2019-04-26T06:04:14.061Z,19.05
2019-04-26T06:06:48.186Z,23.07
2019-04-26T06:09:40.393Z,24.32
2019-04-26T06:12:35.133Z,25.23
2019-04-26T06:15:28.288Z,21.80
2019-04-26T06:18:27.237Z,19.57
2019-04-26T06:21:08.820Z,23.25
2019-04-26T06:23:40.729Z,21.40
2019-04-26T06:26:35.906Z,23.55
2019-04-26T06:29:08.373Z,22.17
2019-04-26T06:31:43.900Z,23.02
2019-04-26T06:34:18.962Z,24.80
2019-04-26T06:37:16.864Z,21.10
2019-04-26T06:40:05.761Z,21.48
2019-04-26T06:42:54.890Z,19.45
2019-04-26T06:45:41.585Z,21.65
2019-04-26T06:48:35.310Z,20.85
2019-04-26T06:51:25.018Z,15.23
2019-04-26T06:54:13.677Z,18.07
2019-04-26T06:57:11.565Z,18.73
2019-04-26T06:59:44.045Z,18.25
2019-04-26T07:02:37.591Z,17.75
2019-04-26T07:05:19.691Z,17.27
2019-04-26T07:08:05.007Z,18.33
2019-04-26T07:10:40.172Z,18.77
2019-04-26T07:13:39.833Z,16.05
2019-04-26T07:16:23.168Z,15.03
2019-04-26T07:19:13.811Z,15.70
2019-04-26T07:21:52.073Z,15.32
2019-04-26T07:24:38.262Z,17.37
2019-04-26T07:27:25.230Z,17.00
2019-04-26T07:30:17.041Z,19.20
2019-04-26T07:33:10.419Z,15.88
2019-04-26T07:36:01.207Z,15.78
2019-04-26T07:38:53.982Z,15.10
2019-04-26T07:42:01.691Z,14.85
2019-04-26T07:44:42.140Z,17.02
2019-04-26T07:47:34.274Z,13.80
2019-04-26T07:50:15.973Z,19.05
2019-04-26T07:53:07.406Z,15.08
2019-04-26T07:55:43.371Z,14.87
2019-04-26T07:58:38.888Z,17.23
2019-04-26T08:01:28.000Z,14.38
2019-04-26T08:04:07.261Z,15.15
2019-04-26T08:06:45.272Z,16.75
2019-04-26T08:09:26.599Z,15.72
2019-04-26T08:11:51.880Z,16.60
2019-04-26T08:14:23.872Z,14.28
2019-04-26T08:17:16.107Z,14.95
2019-04-26T08:19:48.652Z,14.73
2019-04-26T08:22:23.063Z,15.38
2019-04-26T08:24:52.146Z,14.40
2019-04-26T08:27:24.396Z,14.10
2019-04-26T08:29:56.868Z,14.55
2019-04-26T08:32:32.202Z,16.87
2019-04-26T08:35:14.335Z,15.15
2019-04-26T08:37:55.349Z,11.95
2019-04-26T08:40:30.933Z,11.78
2019-04-26T08:43:02.884Z,13.03
2019-04-26T08:46:02.867Z,13.43
2019-04-26T08:48:37.105Z,13.55
2019-04-26T08:51:09.277Z,13.25
2019-04-26T08:53:40.491Z,11.95
2019-04-26T08:56:11.745Z,14.47
2019-04-26T08:58:43.434Z,13.70
2019-04-26T09:01:22.506Z,11.60
2019-04-26T09:03:55.260Z,16.10
2019-04-26T09:09:08.835Z,15.32
2019-04-26T09:11:39.775Z,11.80
2019-04-26T09:14:09.629Z,13.30
2019-04-26T09:16:49.898Z,10.85
2019-04-26T09:19:10.159Z,11.30
2019-04-26T09:21:41.147Z,12.78
2019-04-26T09:24:14.879Z,12.60
2019-04-26T09:26:46.931Z,13.95
2019-04-26T09:29:18.827Z,9.83
2019-04-26T09:32:06.153Z,9.78
2019-04-26T09:34:41.298Z,9.03
2019-04-26T09:37:11.817Z,10.45
2019-04-26T09:39:42.073Z,10.70
2019-04-26T09:42:13.951Z,9.75
2019-04-26T09:44:50.697Z,9.88
2019-04-26T09:47:33.695Z,9.98
2019-04-26T09:50:20.084Z,7.37
2019-04-26T09:52:52.841Z,7.97
2019-04-26T09:55:34.513Z,8.30
2019-04-26T09:57:53.632Z,7.75
2019-04-26T10:00:26.207Z,9.28
2019-04-26T10:02:55.557Z,7.87
2019-04-26T10:05:25.096Z,8.20
2019-04-26T10:07:54.480Z,8.85
2019-04-26T10:10:25.535Z,9.98
2019-04-26T10:13:09.832Z,8.73
2019-04-26T10:15:43.463Z,10.45
2019-04-26T10:18:14.368Z,8.48
2019-04-26T10:20:43.661Z,8.18
2019-04-26T10:23:13.005Z,5.30
2019-04-26T10:25:42.473Z,7.33
2019-04-26T10:28:15.888Z,9.75
2019-04-26T10:30:43.976Z,8.30
2019-04-26T10:33:14.418Z,8.08
2019-04-26T10:35:43.995Z,7.15
2019-04-26T10:38:13.257Z,8.55
2019-04-26T10:40:43.617Z,9.88
2019-04-26T10:43:13.234Z,7.95
2019-04-26T10:45:45.909Z,7.30
2019-04-26T10:48:15.480Z,7.00
2019-04-26T10:50:44.998Z,5.53
2019-04-26T10:53:19.729Z,5.58
2019-04-26T10:56:07.403Z,8.03
2019-04-26T10:58:41.512Z,8.30
2019-04-26T11:01:15.445Z,6.97
2019-04-26T11:03:45.132Z,7.22
2019-04-26T11:06:14.641Z,5.47
2019-04-26T11:08:43.896Z,7.45
2019-04-26T11:11:13.446Z,7.87
2019-04-26T11:13:43.049Z,9.95
2019-04-26T11:16:15.248Z,8.13
2019-04-26T11:18:44.701Z,9.05
2019-04-26T11:21:16.361Z,8.05
2019-04-26T11:23:46.766Z,9.90
2019-04-26T11:26:16.681Z,9.25
2019-04-26T11:28:47.180Z,10.68
2019-04-26T11:31:16.536Z,8.65
2019-04-26T11:33:49.528Z,11.10
2019-04-26T11:36:16.968Z,10.23
2019-04-26T11:38:46.263Z,9.98
2019-04-26T11:41:15.699Z,10.15
2019-04-26T11:43:44.978Z,10.18
2019-04-26T11:46:14.290Z,8.18
2019-04-26T11:48:43.646Z,7.50
2019-04-26T11:51:13.285Z,8.98
2019-04-26T11:53:44.770Z,7.05
2019-04-26T11:56:13.568Z,9.43
2019-04-26T11:58:42.841Z,8.05
2019-04-26T12:01:14.003Z,10.55
2019-04-26T12:03:45.011Z,12.18
2019-04-26T12:06:21.685Z,10.55
2019-04-26T12:08:55.600Z,15.53
2019-04-26T12:11:31.552Z,13.72
2019-04-26T12:13:59.541Z,11.25
2019-04-26T12:16:26.968Z,15.78
2019-04-26T12:18:56.259Z,11.22
2019-04-26T12:21:25.582Z,7.92
2019-04-26T12:23:55.591Z,9.38
2019-04-26T12:26:25.765Z,13.05
2019-04-26T12:28:55.058Z,14.98
2019-04-26T12:31:24.351Z,14.60
2019-04-26T12:33:53.629Z,13.15
2019-04-26T12:36:23.122Z,14.95
2019-04-26T12:38:52.491Z,15.55
2019-04-26T12:41:39.190Z,13.53
2019-04-26T12:43:54.441Z,15.68
2019-04-26T12:46:42.155Z,12.98
2019-04-26T12:49:11.644Z,13.62
2019-04-26T12:51:42.903Z,13.35
2019-04-26T12:54:13.032Z,13.00
2019-04-26T12:56:42.410Z,11.48
2019-04-26T12:59:11.749Z,9.15
2019-04-26T13:01:42.596Z,7.60
2019-04-26T13:04:12.054Z,9.88
2019-04-26T13:07:02.358Z,7.10
2019-04-26T13:09:32.479Z,9.85
2019-04-26T13:12:18.867Z,10.50
2019-04-26T13:14:53.044Z,9.03
2019-04-26T13:17:24.111Z,7.53
2019-04-26T13:19:55.317Z,5.40
2019-04-26T13:22:24.746Z,4.33
2019-04-26T13:24:54.155Z,7.33
2019-04-26T13:27:23.491Z,4.87
2019-04-26T13:30:01.720Z,8.30
2019-04-26T13:32:26.987Z,5.37
2019-04-26T13:34:56.300Z,8.10
2019-04-26T13:37:25.694Z,9.98
2019-04-26T13:39:56.461Z,8.78
2019-04-26T13:42:26.013Z,8.38
2019-04-26T13:44:59.668Z,5.47
2019-04-26T13:47:36.437Z,8.15
2019-04-26T13:50:12.983Z,8.98
2019-04-26T13:52:42.357Z,7.35
2019-04-26T13:55:11.839Z,8.10
2019-04-26T13:57:44.486Z,5.47
2019-04-26T14:00:14.005Z,6.97
2019-04-26T14:02:43.502Z,10.68
2019-04-26T14:05:15.117Z,7.92
2019-04-26T14:07:44.958Z,7.08
2019-04-26T14:10:14.286Z,6.33
2019-04-26T14:12:46.205Z,7.17
2019-04-26T14:15:14.800Z,6.55
2019-04-26T14:17:44.247Z,10.78
2019-04-26T14:20:13.981Z,7.17
2019-04-26T14:22:56.062Z,7.90
2019-04-26T14:25:34.067Z,6.28
2019-04-26T14:28:03.403Z,7.47
2019-04-26T14:30:32.731Z,6.30
2019-04-26T14:33:02.023Z,7.33
2019-04-26T14:35:31.960Z,7.05
2019-04-26T14:38:01.259Z,7.37
2019-04-26T14:40:30.620Z,10.35
2019-04-26T14:43:06.913Z,8.35
2019-04-26T14:45:32.550Z,8.05
2019-04-26T14:48:03.971Z,9.98
2019-04-26T14:50:34.433Z,9.50
2019-04-26T14:53:03.758Z,7.80
2019-04-26T14:55:33.097Z,11.15
2019-04-26T14:58:03.184Z,10.03
2019-04-26T15:00:41.821Z,7.42
2019-04-26T15:03:12.765Z,9.73
2019-04-26T15:05:54.070Z,8.45
2019-04-26T15:08:25.022Z,7.28
2019-04-26T15:11:00.917Z,8.10
2019-04-26T15:13:25.283Z,8.23
2019-04-26T15:15:54.730Z,8.23
2019-04-26T15:18:24.034Z,10.20
2019-04-26T15:20:57.107Z,8.80
2019-04-26T15:23:26.519Z,11.35
2019-04-26T15:25:58.398Z,9.45
2019-04-26T15:28:26.829Z,7.33
2019-04-26T15:30:56.329Z,8.60
2019-04-26T15:33:25.629Z,8.10
2019-04-26T15:35:54.977Z,11.05
2019-04-26T15:38:24.625Z,9.48
2019-04-26T15:41:05.475Z,10.65
2019-04-26T15:43:34.426Z,9.50
2019-04-26T15:46:12.013Z,7.28
2019-04-26T15:48:50.187Z,10.60
2019-04-26T15:51:20.120Z,8.83
2019-04-26T15:53:49.787Z,11.33
2019-04-26T15:56:19.172Z,8.03
2019-04-26T15:58:49.177Z,8.00
2019-04-26T16:01:18.569Z,9.65
2019-04-26T16:03:47.854Z,8.48
2019-04-26T16:06:17.167Z,7.22
2019-04-26T16:08:46.483Z,8.08
2019-04-26T16:11:15.830Z,9.05
2019-04-26T16:13:52.160Z,9.48
2019-04-26T16:16:16.653Z,7.65
2019-04-26T16:18:49.976Z,5.37
2019-04-26T16:21:19.424Z,5.83
2019-04-26T16:23:53.652Z,7.30
2019-04-26T16:26:19.967Z,8.68
2019-04-26T16:29:04.624Z,6.28
2019-04-26T16:31:35.736Z,7.20
2019-04-26T16:34:17.016Z,7.53
2019-04-26T16:36:46.372Z,6.22
2019-04-26T16:39:15.845Z,5.25
2019-04-26T16:41:45.208Z,6.05
2019-04-26T16:44:14.498Z,4.72
2019-04-26T16:46:44.068Z,6.90
2019-04-26T16:49:14.151Z,6.37
2019-04-26T16:51:44.531Z,7.65
2019-04-26T16:54:21.078Z,6.75
2019-04-26T16:56:44.896Z,8.70
2019-04-26T16:59:22.368Z,5.95
2019-04-26T17:01:47.272Z,5.20
2019-04-26T17:04:20.067Z,7.75
2019-04-26T17:06:48.857Z,7.28
2019-04-26T17:09:19.247Z,6.85
2019-04-26T17:11:48.533Z,5.10
2019-04-26T17:14:17.831Z,4.90
2019-04-26T17:16:47.128Z,7.53
2019-04-26T17:19:16.512Z,4.97
2019-04-26T17:21:47.442Z,3.50
2019-04-26T17:24:38.043Z,5.50
2019-04-26T17:27:09.765Z,4.20
2019-04-26T17:32:13.884Z,6.37
2019-04-26T17:34:40.696Z,6.05
2019-04-26T17:37:14.775Z,9.90
2019-04-26T17:39:42.026Z,7.20
2019-04-26T17:42:11.306Z,8.00
2019-04-26T17:44:41.243Z,7.65
2019-04-26T17:47:10.843Z,7.60
2019-04-26T17:49:43.897Z,8.28
2019-04-26T17:52:12.681Z,7.08
2019-04-26T17:54:47.544Z,7.75
2019-04-26T17:57:14.851Z,6.25
2019-04-26T17:59:48.894Z,10.58
2019-04-26T18:02:31.545Z,6.58
2019-04-26T18:04:58.192Z,10.20
2019-04-26T18:07:39.680Z,7.15
2019-04-26T18:09:56.968Z,10.48
2019-04-26T18:12:24.199Z,12.88
2019-04-26T18:14:53.611Z,7.22
2019-04-26T18:17:27.641Z,10.05
2019-04-26T18:20:16.174Z,7.53
2019-04-26T18:22:53.148Z,6.78
2019-04-26T18:25:23.525Z,12.55
2019-04-26T18:27:53.452Z,9.18
2019-04-26T18:30:24.073Z,7.12
2019-04-26T18:32:53.475Z,7.75
2019-04-26T18:35:23.407Z,6.65
2019-04-26T18:37:53.949Z,9.28
2019-04-26T18:40:23.496Z,8.75
2019-04-26T18:42:55.014Z,10.20
2019-04-26T18:45:28.744Z,6.55
2019-04-26T18:48:00.983Z,8.03
2019-04-26T18:50:28.465Z,11.40
2019-04-26T18:52:59.855Z,12.98
2019-04-26T18:55:31.064Z,5.78
2019-04-26T18:58:03.580Z,12.93
2019-04-26T19:00:34.651Z,10.82
2019-04-26T19:05:33.863Z,10.18
2019-04-26T19:08:05.099Z,9.85
2019-04-26T19:10:34.966Z,7.60
2019-04-26T19:13:07.346Z,5.42
2019-04-26T19:15:57.549Z,7.72
2019-04-26T19:18:31.489Z,7.35
2019-04-26T19:23:41.563Z,13.32
2019-04-26T19:26:13.690Z,15.95
2019-04-26T19:28:44.606Z,22.70
2019-04-26T19:31:14.152Z,19.05
2019-04-26T19:33:43.511Z,17.70
2019-04-26T19:36:13.830Z,14.68
2019-04-26T19:38:49.766Z,16.37
2019-04-26T19:41:17.328Z,13.18
2019-04-26T19:43:46.266Z,7.95
2019-04-26T19:46:23.402Z,6.03
2019-04-26T19:49:10.084Z,7.10
2019-04-26T19:52:02.203Z,7.50
2019-04-26T19:54:38.470Z,11.63
2019-04-26T19:57:11.457Z,7.83
2019-04-26T19:59:42.278Z,8.40
2019-04-26T20:02:12.780Z,10.93
2019-04-26T20:04:42.194Z,15.40
2019-04-26T20:07:13.658Z,10.38
2019-04-26T20:09:42.926Z,9.08
2019-04-26T20:12:12.470Z,10.53
2019-04-26T20:14:49.203Z,7.92
2019-04-26T20:17:19.635Z,8.80
2019-04-26T20:19:47.703Z,10.10
2019-04-26T20:22:15.982Z,9.73
2019-04-26T20:24:48.782Z,7.53
2019-04-26T20:27:20.677Z,8.75
2019-04-26T20:29:49.365Z,6.97
2019-04-26T20:32:38.315Z,6.97
2019-04-26T20:35:14.310Z,8.80
2019-04-26T20:37:45.186Z,8.70
2019-04-26T20:40:22.239Z,7.85
2019-04-26T20:42:48.772Z,8.73
2019-04-26T20:45:18.048Z,6.80
2019-04-26T20:47:51.937Z,6.30
2019-04-26T20:50:18.512Z,5.95
2019-04-26T20:52:47.896Z,7.15
2019-04-26T20:55:17.160Z,6.92
2019-04-26T20:57:46.489Z,8.23
2019-04-26T21:00:17.743Z,5.90
2019-04-26T21:02:47.217Z,6.65
2019-04-26T21:05:16.502Z,8.45
2019-04-26T21:07:49.718Z,5.12
2019-04-26T21:10:21.681Z,5.58
2019-04-26T21:12:52.215Z,7.08
2019-04-26T21:15:20.220Z,6.80
2019-04-26T21:17:51.754Z,5.92
2019-04-26T21:20:21.609Z,5.80
2019-04-26T21:22:52.413Z,9.45
2019-04-26T21:25:35.447Z,7.83
2019-04-26T21:30:55.987Z,7.42
2019-04-26T21:33:35.352Z,8.90
2019-04-26T21:36:05.823Z,8.88
2019-04-26T21:38:53.847Z,6.15
2019-04-26T21:41:28.189Z,8.30
2019-04-26T21:43:59.035Z,8.35
2019-04-26T21:46:29.011Z,8.20
2019-04-26T21:48:58.499Z,9.43
2019-04-26T21:51:27.786Z,10.35
2019-04-26T21:53:57.083Z,7.20
2019-04-26T21:56:26.360Z,9.28
2019-04-26T21:58:55.815Z,7.20
2019-04-26T22:01:26.699Z,11.65
2019-04-26T22:03:58.461Z,10.18
2019-04-26T22:06:28.656Z,12.63
2019-04-26T22:09:02.634Z,8.45
2019-04-26T22:11:32.253Z,9.33
2019-04-26T22:14:05.774Z,9.50
2019-04-26T22:16:38.058Z,10.43
2019-04-26T22:19:27.913Z,9.75
2019-04-26T22:22:04.230Z,12.00
2019-04-26T22:24:39.937Z,9.23
2019-04-26T22:27:09.333Z,11.73
2019-04-26T22:29:39.427Z,9.88
2019-04-26T22:32:11.458Z,10.23
2019-04-26T22:34:42.782Z,8.88
2019-04-26T22:37:12.907Z,12.80
2019-04-26T22:39:44.376Z,10.23
2019-04-26T22:42:14.281Z,9.33
2019-04-26T22:44:54.210Z,9.78
2019-04-26T22:47:25.307Z,9.70
2019-04-26T22:49:56.239Z,9.55
2019-04-26T22:52:25.543Z,8.85
2019-04-26T22:54:55.006Z,12.53
2019-04-26T22:57:24.363Z,9.38
2019-04-26T22:59:55.203Z,7.08
2019-04-26T23:02:27.739Z,9.48
2019-04-26T23:05:00.375Z,9.63
2019-04-26T23:07:27.278Z,6.67
2019-04-26T23:09:56.600Z,9.00
2019-04-26T23:12:28.263Z,8.00
2019-04-26T23:15:05.620Z,9.48
2019-04-26T23:17:36.588Z,11.57
2019-04-26T23:20:16.815Z,7.53
2019-04-26T23:22:46.121Z,12.30
2019-04-26T23:25:15.544Z,7.20
2019-04-26T23:27:46.385Z,8.13
2019-04-26T23:30:16.503Z,9.50
2019-04-26T23:32:48.507Z,9.53
2019-04-26T23:35:16.801Z,9.83
2019-04-26T23:37:46.059Z,8.80
2019-04-26T23:40:15.377Z,11.38
2019-04-26T23:42:47.606Z,9.63
2019-04-26T23:45:15.628Z,12.73
2019-04-26T23:47:44.896Z,12.40
2019-04-26T23:50:14.196Z,12.95
2019-04-26T23:52:44.566Z,11.85
2019-04-26T23:55:13.902Z,11.68
2019-04-26T23:57:43.569Z,14.03
